sensor_id;sensor_type;location;lat;lon;timestamp;P1;durP1;ratioP1;P2;durP2;ratioP2
19543;SDS011;9917;51.256;7.152;2023-04-25T00:01:22;13.03;;;4.90;;
19543;SDS011;9917;51.256;7.152;2023-04-25T00:03:47;10.73;;;4.60;;
19543;SDS011;9917;51.256;7.152;2023-04-25T00:06:13;12.70;;;4.77;;
19543;SDS011;9917;51.256;7.152;2023-04-25T00:08:39;12.80;;;4.63;;
19543;SDS011;9917;51.256;7.152;2023-04-25T00:11:05;14.90;;;5.10;;
19543;SDS011;9917;51.256;7.152;2023-04-25T00:13:31;13.33;;;4.73;;
19543;SDS011;9917;51.256;7.152;2023-04-25T00:15:57;9.87;;;4.20;;
19543;SDS011;9917;51.256;7.152;2023-04-25T00:18:25;7.77;;;4.40;;
19543;SDS011;9917;51.256;7.152;2023-04-25T00:20:51;14.10;;;4.67;;
19543;SDS011;9917;51.256;7.152;2023-04-25T00:23:17;7.07;;;4.00;;
19543;SDS011;9917;51.256;7.152;2023-04-25T00:25:43;12.10;;;4.60;;
19543;SDS011;9917;51.256;7.152;2023-04-25T00:28:09;13.43;;;4.07;;
19543;SDS011;9917;51.256;7.152;2023-04-25T00:30:35;18.83;;;4.77;;
19543;SDS011;9917;51.256;7.152;2023-04-25T00:33:01;9.63;;;4.00;;
19543;SDS011;9917;51.256;7.152;2023-04-25T00:35:28;8.43;;;3.80;;
19543;SDS011;9917;51.256;7.152;2023-04-25T00:37:53;10.03;;;3.83;;
19543;SDS011;9917;51.256;7.152;2023-04-25T00:40:20;13.53;;;4.03;;
19543;SDS011;9917;51.256;7.152;2023-04-25T00:42:46;11.40;;;3.87;;
19543;SDS011;9917;51.256;7.152;2023-04-25T00:45:12;9.77;;;3.80;;
19543;SDS011;9917;51.256;7.152;2023-04-25T00:47:39;9.47;;;3.77;;
19543;SDS011;9917;51.256;7.152;2023-04-25T00:50:06;12.37;;;4.27;;
19543;SDS011;9917;51.256;7.152;2023-04-25T00:52:34;13.33;;;3.90;;
19543;SDS011;9917;51.256;7.152;2023-04-25T00:55:00;7.77;;;3.17;;
19543;SDS011;9917;51.256;7.152;2023-04-25T00:57:26;9.53;;;3.67;;
19543;SDS011;9917;51.256;7.152;2023-04-25T00:59:52;13.67;;;4.30;;
19543;SDS011;9917;51.256;7.152;2023-04-25T01:02:19;7.30;;;4.07;;
19543;SDS011;9917;51.256;7.152;2023-04-25T01:04:45;11.90;;;4.13;;
19543;SDS011;9917;51.256;7.152;2023-04-25T01:07:11;10.63;;;4.40;;
19543;SDS011;9917;51.256;7.152;2023-04-25T01:09:41;14.83;;;3.70;;
19543;SDS011;9917;51.256;7.152;2023-04-25T01:12:06;8.90;;;4.30;;
19543;SDS011;9917;51.256;7.152;2023-04-25T01:14:35;14.83;;;4.27;;
19543;SDS011;9917;51.256;7.152;2023-04-25T01:17:01;13.93;;;4.73;;
19543;SDS011;9917;51.256;7.152;2023-04-25T01:19:30;15.33;;;4.40;;
19543;SDS011;9917;51.256;7.152;2023-04-25T01:21:59;13.47;;;4.30;;
19543;SDS011;9917;51.256;7.152;2023-04-25T01:24:25;13.67;;;4.50;;
19543;SDS011;9917;51.256;7.152;2023-04-25T01:26:52;18.17;;;4.37;;
19543;SDS011;9917;51.256;7.152;2023-04-25T01:29:19;9.90;;;3.63;;
19543;SDS011;9917;51.256;7.152;2023-04-25T01:31:45;10.37;;;3.80;;
19543;SDS011;9917;51.256;7.152;2023-04-25T01:34:15;7.93;;;3.60;;
19543;SDS011;9917;51.256;7.152;2023-04-25T01:36:41;7.67;;;3.50;;
19543;SDS011;9917;51.256;7.152;2023-04-25T01:39:08;10.70;;;4.17;;
19543;SDS011;9917;51.256;7.152;2023-04-25T01:41:34;13.20;;;4.23;;
19543;SDS011;9917;51.256;7.152;2023-04-25T01:44:00;10.10;;;3.73;;
19543;SDS011;9917;51.256;7.152;2023-04-25T01:46:27;8.03;;;3.93;;
19543;SDS011;9917;51.256;7.152;2023-04-25T01:48:53;9.67;;;3.80;;
19543;SDS011;9917;51.256;7.152;2023-04-25T01:51:19;13.97;;;3.90;;
19543;SDS011;9917;51.256;7.152;2023-04-25T01:53:45;11.00;;;3.80;;
19543;SDS011;9917;51.256;7.152;2023-04-25T01:56:12;8.37;;;3.87;;
19543;SDS011;9917;51.256;7.152;2023-04-25T01:58:38;6.47;;;3.50;;
19543;SDS011;9917;51.256;7.152;2023-04-25T02:01:04;12.00;;;4.30;;
19543;SDS011;9917;51.256;7.152;2023-04-25T02:03:30;12.67;;;3.93;;
19543;SDS011;9917;51.256;7.152;2023-04-25T02:05:57;10.63;;;3.63;;
19543;SDS011;9917;51.256;7.152;2023-04-25T02:08:23;8.63;;;4.37;;
19543;SDS011;9917;51.256;7.152;2023-04-25T02:10:48;9.53;;;3.70;;
19543;SDS011;9917;51.256;7.152;2023-04-25T02:13:15;4.57;;;3.10;;
19543;SDS011;9917;51.256;7.152;2023-04-25T02:15:41;8.00;;;3.57;;
19543;SDS011;9917;51.256;7.152;2023-04-25T02:18:07;7.73;;;3.93;;
19543;SDS011;9917;51.256;7.152;2023-04-25T02:20:33;15.03;;;4.33;;
19543;SDS011;9917;51.256;7.152;2023-04-25T02:22:59;8.83;;;3.73;;
19543;SDS011;9917;51.256;7.152;2023-04-25T02:25:24;9.70;;;3.30;;
19543;SDS011;9917;51.256;7.152;2023-04-25T02:27:50;6.77;;;3.90;;
19543;SDS011;9917;51.256;7.152;2023-04-25T02:30:18;8.00;;;3.97;;
19543;SDS011;9917;51.256;7.152;2023-04-25T02:32:43;9.77;;;4.47;;
19543;SDS011;9917;51.256;7.152;2023-04-25T02:35:09;8.53;;;3.73;;
19543;SDS011;9917;51.256;7.152;2023-04-25T02:37:38;17.13;;;4.73;;
19543;SDS011;9917;51.256;7.152;2023-04-25T02:40:05;10.40;;;4.53;;
19543;SDS011;9917;51.256;7.152;2023-04-25T02:42:36;13.53;;;5.47;;
19543;SDS011;9917;51.256;7.152;2023-04-25T02:45:02;9.43;;;4.40;;
19543;SDS011;9917;51.256;7.152;2023-04-25T02:47:29;11.33;;;5.33;;
19543;SDS011;9917;51.256;7.152;2023-04-25T02:49:55;16.57;;;4.87;;
19543;SDS011;9917;51.256;7.152;2023-04-25T02:52:21;10.97;;;4.87;;
19543;SDS011;9917;51.256;7.152;2023-04-25T02:54:47;9.83;;;4.70;;
19543;SDS011;9917;51.256;7.152;2023-04-25T02:57:13;9.60;;;4.90;;
19543;SDS011;9917;51.256;7.152;2023-04-25T02:59:41;14.97;;;5.30;;
19543;SDS011;9917;51.256;7.152;2023-04-25T03:02:07;13.97;;;4.97;;
19543;SDS011;9917;51.256;7.152;2023-04-25T03:04:34;13.23;;;5.03;;
19543;SDS011;9917;51.256;7.152;2023-04-25T03:07:00;12.17;;;5.10;;
19543;SDS011;9917;51.256;7.152;2023-04-25T03:09:26;14.30;;;5.50;;
19543;SDS011;9917;51.256;7.152;2023-04-25T03:11:55;10.37;;;5.67;;
19543;SDS011;9917;51.256;7.152;2023-04-25T03:14:20;12.03;;;5.27;;
19543;SDS011;9917;51.256;7.152;2023-04-25T03:16:46;13.63;;;5.20;;
19543;SDS011;9917;51.256;7.152;2023-04-25T03:19:15;10.50;;;4.73;;
19543;SDS011;9917;51.256;7.152;2023-04-25T03:21:43;13.87;;;5.60;;
19543;SDS011;9917;51.256;7.152;2023-04-25T03:24:08;10.07;;;5.13;;
19543;SDS011;9917;51.256;7.152;2023-04-25T03:26:34;8.43;;;5.13;;
19543;SDS011;9917;51.256;7.152;2023-04-25T03:29:02;11.97;;;5.77;;
19543;SDS011;9917;51.256;7.152;2023-04-25T03:31:27;13.20;;;5.60;;
19543;SDS011;9917;51.256;7.152;2023-04-25T03:33:53;9.90;;;5.50;;
19543;SDS011;9917;51.256;7.152;2023-04-25T03:36:19;11.80;;;5.93;;
19543;SDS011;9917;51.256;7.152;2023-04-25T03:38:46;12.03;;;5.50;;
19543;SDS011;9917;51.256;7.152;2023-04-25T03:41:12;15.73;;;6.60;;
19543;SDS011;9917;51.256;7.152;2023-04-25T03:43:38;15.93;;;5.87;;
19543;SDS011;9917;51.256;7.152;2023-04-25T03:46:04;12.97;;;6.20;;
19543;SDS011;9917;51.256;7.152;2023-04-25T03:48:30;13.20;;;6.63;;
19543;SDS011;9917;51.256;7.152;2023-04-25T03:50:56;14.97;;;6.93;;
19543;SDS011;9917;51.256;7.152;2023-04-25T03:53:22;14.07;;;7.03;;
19543;SDS011;9917;51.256;7.152;2023-04-25T03:55:49;16.20;;;7.10;;
19543;SDS011;9917;51.256;7.152;2023-04-25T03:58:15;12.97;;;6.30;;
19543;SDS011;9917;51.256;7.152;2023-04-25T04:00:40;14.93;;;6.33;;
19543;SDS011;9917;51.256;7.152;2023-04-25T04:03:07;12.87;;;6.37;;
19543;SDS011;9917;51.256;7.152;2023-04-25T04:05:56;12.90;;;6.73;;
19543;SDS011;9917;51.256;7.152;2023-04-25T04:08:24;16.80;;;7.17;;
19543;SDS011;9917;51.256;7.152;2023-04-25T04:10:51;15.30;;;6.87;;
19543;SDS011;9917;51.256;7.152;2023-04-25T04:13:16;15.17;;;7.50;;
19543;SDS011;9917;51.256;7.152;2023-04-25T04:15:43;18.87;;;8.90;;
19543;SDS011;9917;51.256;7.152;2023-04-25T04:18:08;18.43;;;8.13;;
19543;SDS011;9917;51.256;7.152;2023-04-25T04:20:34;17.33;;;8.73;;
19543;SDS011;9917;51.256;7.152;2023-04-25T04:23:00;18.97;;;8.53;;
19543;SDS011;9917;51.256;7.152;2023-04-25T04:25:26;22.53;;;8.70;;
19543;SDS011;9917;51.256;7.152;2023-04-25T04:27:53;18.60;;;8.47;;
19543;SDS011;9917;51.256;7.152;2023-04-25T04:30:19;21.37;;;8.97;;
19543;SDS011;9917;51.256;7.152;2023-04-25T04:32:45;21.90;;;8.50;;
19543;SDS011;9917;51.256;7.152;2023-04-25T04:35:11;19.20;;;7.97;;
19543;SDS011;9917;51.256;7.152;2023-04-25T04:37:37;14.10;;;7.20;;
19543;SDS011;9917;51.256;7.152;2023-04-25T04:40:03;23.83;;;8.50;;
19543;SDS011;9917;51.256;7.152;2023-04-25T04:42:29;17.27;;;7.70;;
19543;SDS011;9917;51.256;7.152;2023-04-25T04:45:06;17.03;;;7.47;;
19543;SDS011;9917;51.256;7.152;2023-04-25T04:47:32;14.77;;;7.10;;
19543;SDS011;9917;51.256;7.152;2023-04-25T04:49:57;19.30;;;6.57;;
19543;SDS011;9917;51.256;7.152;2023-04-25T04:52:24;14.50;;;6.67;;
19543;SDS011;9917;51.256;7.152;2023-04-25T04:54:49;18.00;;;7.83;;
19543;SDS011;9917;51.256;7.152;2023-04-25T04:57:15;21.07;;;7.73;;
19543;SDS011;9917;51.256;7.152;2023-04-25T04:59:41;24.93;;;7.23;;
19543;SDS011;9917;51.256;7.152;2023-04-25T05:02:08;19.60;;;7.23;;
19543;SDS011;9917;51.256;7.152;2023-04-25T05:04:34;22.50;;;7.13;;
19543;SDS011;9917;51.256;7.152;2023-04-25T05:06:59;15.77;;;6.83;;
19543;SDS011;9917;51.256;7.152;2023-04-25T05:09:26;20.17;;;7.87;;
19543;SDS011;9917;51.256;7.152;2023-04-25T05:11:52;16.17;;;6.90;;
19543;SDS011;9917;51.256;7.152;2023-04-25T05:14:18;23.20;;;7.83;;
19543;SDS011;9917;51.256;7.152;2023-04-25T05:16:43;21.63;;;8.20;;
19543;SDS011;9917;51.256;7.152;2023-04-25T05:19:14;17.07;;;8.67;;
19543;SDS011;9917;51.256;7.152;2023-04-25T05:21:39;20.67;;;8.47;;
19543;SDS011;9917;51.256;7.152;2023-04-25T05:24:05;18.37;;;8.43;;
19543;SDS011;9917;51.256;7.152;2023-04-25T05:26:31;15.77;;;8.10;;
19543;SDS011;9917;51.256;7.152;2023-04-25T05:28:57;17.77;;;8.80;;
19543;SDS011;9917;51.256;7.152;2023-04-25T05:31:23;23.43;;;8.60;;
19543;SDS011;9917;51.256;7.152;2023-04-25T05:33:48;25.07;;;8.90;;
19543;SDS011;9917;51.256;7.152;2023-04-25T05:36:15;20.00;;;8.13;;
19543;SDS011;9917;51.256;7.152;2023-04-25T05:38:43;20.80;;;9.07;;
19543;SDS011;9917;51.256;7.152;2023-04-25T05:41:08;24.23;;;8.73;;
19543;SDS011;9917;51.256;7.152;2023-04-25T05:43:34;20.33;;;8.83;;
19543;SDS011;9917;51.256;7.152;2023-04-25T05:46:00;16.97;;;8.53;;
19543;SDS011;9917;51.256;7.152;2023-04-25T05:51:07;14.17;;;7.00;;
19543;SDS011;9917;51.256;7.152;2023-04-25T05:53:35;19.93;;;7.67;;
19543;SDS011;9917;51.256;7.152;2023-04-25T05:56:04;18.70;;;7.87;;
19543;SDS011;9917;51.256;7.152;2023-04-25T05:58:30;13.87;;;6.97;;
19543;SDS011;9917;51.256;7.152;2023-04-25T06:00:56;19.97;;;6.90;;
19543;SDS011;9917;51.256;7.152;2023-04-25T06:03:22;23.07;;;6.37;;
19543;SDS011;9917;51.256;7.152;2023-04-25T06:06:01;15.33;;;7.27;;
19543;SDS011;9917;51.256;7.152;2023-04-25T06:08:36;20.33;;;6.63;;
19543;SDS011;9917;51.256;7.152;2023-04-25T06:11:02;15.37;;;6.97;;
19543;SDS011;9917;51.256;7.152;2023-04-25T06:13:34;18.90;;;6.53;;
19543;SDS011;9917;51.256;7.152;2023-04-25T06:16:10;15.93;;;6.33;;
19543;SDS011;9917;51.256;7.152;2023-04-25T06:18:39;13.10;;;5.27;;
19543;SDS011;9917;51.256;7.152;2023-04-25T06:21:04;12.60;;;5.67;;
19543;SDS011;9917;51.256;7.152;2023-04-25T06:23:30;16.30;;;6.23;;
19543;SDS011;9917;51.256;7.152;2023-04-25T06:25:59;13.03;;;5.90;;
19543;SDS011;9917;51.256;7.152;2023-04-25T06:28:26;12.87;;;5.77;;
19543;SDS011;9917;51.256;7.152;2023-04-25T06:30:58;15.97;;;5.97;;
19543;SDS011;9917;51.256;7.152;2023-04-25T06:33:27;10.43;;;6.40;;
19543;SDS011;9917;51.256;7.152;2023-04-25T06:35:56;30.50;;;9.93;;
19543;SDS011;9917;51.256;7.152;2023-04-25T06:38:27;18.00;;;6.73;;
19543;SDS011;9917;51.256;7.152;2023-04-25T06:41:02;17.73;;;6.23;;
19543;SDS011;9917;51.256;7.152;2023-04-25T06:43:28;15.27;;;5.20;;
19543;SDS011;9917;51.256;7.152;2023-04-25T06:45:57;14.63;;;6.47;;
19543;SDS011;9917;51.256;7.152;2023-04-25T06:48:22;14.98;;;5.93;;
19543;SDS011;9917;51.256;7.152;2023-04-25T06:50:48;17.93;;;6.23;;
19543;SDS011;9917;51.256;7.152;2023-04-25T06:53:14;17.63;;;5.63;;
19543;SDS011;9917;51.256;7.152;2023-04-25T06:55:46;19.38;;;7.95;;
19543;SDS011;9917;51.256;7.152;2023-04-25T06:58:13;14.90;;;5.07;;
19543;SDS011;9917;51.256;7.152;2023-04-25T07:00:39;22.75;;;7.13;;
19543;SDS011;9917;51.256;7.152;2023-04-25T07:03:11;16.45;;;5.95;;
19543;SDS011;9917;51.256;7.152;2023-04-25T07:05:37;13.17;;;4.87;;
19543;SDS011;9917;51.256;7.152;2023-04-25T07:08:03;22.70;;;10.45;;
19543;SDS011;9917;51.256;7.152;2023-04-25T07:10:29;23.55;;;10.93;;
19543;SDS011;9917;51.256;7.152;2023-04-25T07:12:55;17.27;;;7.35;;
19543;SDS011;9917;51.256;7.152;2023-04-25T07:15:25;15.25;;;6.25;;
19543;SDS011;9917;51.256;7.152;2023-04-25T07:17:51;15.23;;;4.97;;
19543;SDS011;9917;51.256;7.152;2023-04-25T07:20:20;12.30;;;5.55;;
19543;SDS011;9917;51.256;7.152;2023-04-25T07:22:53;12.90;;;5.45;;
19543;SDS011;9917;51.256;7.152;2023-04-25T07:25:19;20.43;;;8.30;;
19543;SDS011;9917;51.256;7.152;2023-04-25T07:28:02;20.85;;;10.02;;
19543;SDS011;9917;51.256;7.152;2023-04-25T07:30:30;17.42;;;7.80;;
19543;SDS011;9917;51.256;7.152;2023-04-25T07:32:56;11.45;;;5.60;;
19543;SDS011;9917;51.256;7.152;2023-04-25T07:35:25;9.20;;;4.20;;
19543;SDS011;9917;51.256;7.152;2023-04-25T07:37:55;15.37;;;5.63;;
19543;SDS011;9917;51.256;7.152;2023-04-25T07:40:21;11.38;;;4.28;;
19543;SDS011;9917;51.256;7.152;2023-04-25T07:42:47;20.17;;;6.20;;
19543;SDS011;9917;51.256;7.152;2023-04-25T07:45:13;16.90;;;5.13;;
19543;SDS011;9917;51.256;7.152;2023-04-25T07:47:40;18.55;;;5.47;;
19543;SDS011;9917;51.256;7.152;2023-04-25T07:50:06;13.07;;;3.07;;
19543;SDS011;9917;51.256;7.152;2023-04-25T07:52:32;19.30;;;8.55;;
19543;SDS011;9917;51.256;7.152;2023-04-25T07:54:58;22.42;;;8.30;;
19543;SDS011;9917;51.256;7.152;2023-04-25T07:57:27;25.05;;;9.35;;
19543;SDS011;9917;51.256;7.152;2023-04-25T07:59:52;14.15;;;5.18;;
19543;SDS011;9917;51.256;7.152;2023-04-25T08:02:18;10.77;;;4.17;;
19543;SDS011;9917;51.256;7.152;2023-04-25T08:04:45;13.38;;;4.32;;
19543;SDS011;9917;51.256;7.152;2023-04-25T08:07:11;15.68;;;4.45;;
19543;SDS011;9917;51.256;7.152;2023-04-25T08:09:37;13.50;;;3.65;;
19543;SDS011;9917;51.256;7.152;2023-04-25T08:12:03;15.18;;;4.32;;
19543;SDS011;9917;51.256;7.152;2023-04-25T08:14:29;12.63;;;4.32;;
19543;SDS011;9917;51.256;7.152;2023-04-25T08:16:55;9.45;;;3.90;;
19543;SDS011;9917;51.256;7.152;2023-04-25T08:19:21;10.82;;;3.90;;
19543;SDS011;9917;51.256;7.152;2023-04-25T08:21:48;11.68;;;3.25;;
19543;SDS011;9917;51.256;7.152;2023-04-25T08:24:14;8.00;;;3.28;;
19543;SDS011;9917;51.256;7.152;2023-04-25T08:26:39;10.15;;;2.80;;
19543;SDS011;9917;51.256;7.152;2023-04-25T08:29:05;10.55;;;2.58;;
19543;SDS011;9917;51.256;7.152;2023-04-25T08:31:31;10.55;;;4.00;;
19543;SDS011;9917;51.256;7.152;2023-04-25T08:33:57;11.07;;;4.40;;
19543;SDS011;9917;51.256;7.152;2023-04-25T08:36:23;10.00;;;3.95;;
19543;SDS011;9917;51.256;7.152;2023-04-25T08:38:50;7.07;;;2.17;;
19543;SDS011;9917;51.256;7.152;2023-04-25T08:41:16;8.80;;;2.83;;
19543;SDS011;9917;51.256;7.152;2023-04-25T08:43:44;6.45;;;2.30;;
19543;SDS011;9917;51.256;7.152;2023-04-25T08:46:13;9.25;;;3.10;;
19543;SDS011;9917;51.256;7.152;2023-04-25T08:48:43;16.23;;;4.95;;
19543;SDS011;9917;51.256;7.152;2023-04-25T08:51:10;6.60;;;2.55;;
19543;SDS011;9917;51.256;7.152;2023-04-25T08:53:40;7.68;;;2.28;;
19543;SDS011;9917;51.256;7.152;2023-04-25T08:56:08;11.55;;;3.00;;
19543;SDS011;9917;51.256;7.152;2023-04-25T08:58:40;12.25;;;2.65;;
19543;SDS011;9917;51.256;7.152;2023-04-25T09:01:06;7.00;;;1.55;;
19543;SDS011;9917;51.256;7.152;2023-04-25T09:03:32;6.78;;;1.88;;
19543;SDS011;9917;51.256;7.152;2023-04-25T09:05:58;8.43;;;2.38;;
19543;SDS011;9917;51.256;7.152;2023-04-25T09:08:24;6.45;;;2.55;;
19543;SDS011;9917;51.256;7.152;2023-04-25T09:10:50;6.47;;;2.30;;
19543;SDS011;9917;51.256;7.152;2023-04-25T09:13:25;10.45;;;3.80;;
19543;SDS011;9917;51.256;7.152;2023-04-25T09:15:52;5.57;;;1.83;;
19543;SDS011;9917;51.256;7.152;2023-04-25T09:18:22;5.88;;;1.90;;
19543;SDS011;9917;51.256;7.152;2023-04-25T09:20:48;7.10;;;2.88;;
19543;SDS011;9917;51.256;7.152;2023-04-25T09:23:14;5.43;;;1.70;;
19543;SDS011;9917;51.256;7.152;2023-04-25T09:25:40;13.25;;;5.40;;
19543;SDS011;9917;51.256;7.152;2023-04-25T09:28:06;8.73;;;2.58;;
19543;SDS011;9917;51.256;7.152;2023-04-25T09:30:34;8.98;;;2.20;;
19543;SDS011;9917;51.256;7.152;2023-04-25T09:33:04;11.65;;;2.42;;
19543;SDS011;9917;51.256;7.152;2023-04-25T09:35:35;16.10;;;2.78;;
19543;SDS011;9917;51.256;7.152;2023-04-25T09:38:01;15.55;;;3.00;;
19543;SDS011;9917;51.256;7.152;2023-04-25T09:40:26;6.90;;;2.10;;
19543;SDS011;9917;51.256;7.152;2023-04-25T09:42:52;9.52;;;3.42;;
19543;SDS011;9917;51.256;7.152;2023-04-25T09:45:27;10.35;;;3.30;;
19543;SDS011;9917;51.256;7.152;2023-04-25T09:47:56;5.90;;;1.80;;
19543;SDS011;9917;51.256;7.152;2023-04-25T09:50:27;5.22;;;2.08;;
19543;SDS011;9917;51.256;7.152;2023-04-25T09:53:02;10.38;;;3.05;;
19543;SDS011;9917;51.256;7.152;2023-04-25T09:55:28;13.93;;;5.55;;
19543;SDS011;9917;51.256;7.152;2023-04-25T09:57:54;13.18;;;5.88;;
19543;SDS011;9917;51.256;7.152;2023-04-25T10:00:25;5.20;;;2.47;;
19543;SDS011;9917;51.256;7.152;2023-04-25T10:02:55;7.32;;;1.88;;
19543;SDS011;9917;51.256;7.152;2023-04-25T10:05:26;3.75;;;1.88;;
19543;SDS011;9917;51.256;7.152;2023-04-25T10:07:55;8.95;;;2.22;;
19543;SDS011;9917;51.256;7.152;2023-04-25T10:10:27;5.45;;;2.22;;
19543;SDS011;9917;51.256;7.152;2023-04-25T10:12:54;10.40;;;2.55;;
19543;SDS011;9917;51.256;7.152;2023-04-25T10:15:21;7.30;;;3.40;;
19543;SDS011;9917;51.256;7.152;2023-04-25T10:17:47;4.13;;;1.20;;
19543;SDS011;9917;51.256;7.152;2023-04-25T10:20:15;6.63;;;1.10;;
19543;SDS011;9917;51.256;7.152;2023-04-25T10:22:41;9.00;;;2.80;;
19543;SDS011;9917;51.256;7.152;2023-04-25T10:25:09;5.47;;;1.25;;
19543;SDS011;9917;51.256;7.152;2023-04-25T10:27:35;4.28;;;0.90;;
19543;SDS011;9917;51.256;7.152;2023-04-25T10:30:02;7.97;;;4.07;;
19543;SDS011;9917;51.256;7.152;2023-04-25T10:32:30;7.40;;;2.33;;
19543;SDS011;9917;51.256;7.152;2023-04-25T10:34:56;10.57;;;5.03;;
19543;SDS011;9917;51.256;7.152;2023-04-25T10:37:23;5.53;;;1.60;;
19543;SDS011;9917;51.256;7.152;2023-04-25T10:39:49;4.80;;;1.90;;
19543;SDS011;9917;51.256;7.152;2023-04-25T10:42:15;10.57;;;3.15;;
19543;SDS011;9917;51.256;7.152;2023-04-25T10:44:41;7.93;;;2.85;;
19543;SDS011;9917;51.256;7.152;2023-04-25T10:47:34;5.03;;;1.52;;
19543;SDS011;9917;51.256;7.152;2023-04-25T10:50:04;5.20;;;1.25;;
19543;SDS011;9917;51.256;7.152;2023-04-25T10:52:32;2.80;;;0.85;;
19543;SDS011;9917;51.256;7.152;2023-04-25T10:54:58;2.70;;;0.93;;
19543;SDS011;9917;51.256;7.152;2023-04-25T10:57:28;6.75;;;1.00;;
19543;SDS011;9917;51.256;7.152;2023-04-25T10:59:54;6.95;;;1.13;;
19543;SDS011;9917;51.256;7.152;2023-04-25T11:02:25;3.58;;;1.08;;
19543;SDS011;9917;51.256;7.152;2023-04-25T11:04:51;4.63;;;1.05;;
19543;SDS011;9917;51.256;7.152;2023-04-25T11:07:20;7.10;;;1.10;;
19543;SDS011;9917;51.256;7.152;2023-04-25T11:09:55;5.32;;;1.17;;
19543;SDS011;9917;51.256;7.152;2023-04-25T11:12:21;6.35;;;1.20;;
19543;SDS011;9917;51.256;7.152;2023-04-25T11:14:49;6.05;;;0.98;;
19543;SDS011;9917;51.256;7.152;2023-04-25T11:17:15;3.35;;;1.00;;
19543;SDS011;9917;51.256;7.152;2023-04-25T11:19:40;4.65;;;0.75;;
19543;SDS011;9917;51.256;7.152;2023-04-25T11:22:06;5.22;;;0.93;;
19543;SDS011;9917;51.256;7.152;2023-04-25T11:24:33;2.53;;;0.77;;
19543;SDS011;9917;51.256;7.152;2023-04-25T11:27:01;5.22;;;1.10;;
19543;SDS011;9917;51.256;7.152;2023-04-25T11:29:27;2.97;;;0.65;;
19543;SDS011;9917;51.256;7.152;2023-04-25T11:31:54;4.47;;;0.85;;
19543;SDS011;9917;51.256;7.152;2023-04-25T11:34:21;4.82;;;0.80;;
19543;SDS011;9917;51.256;7.152;2023-04-25T11:36:46;5.97;;;1.25;;
19543;SDS011;9917;51.256;7.152;2023-04-25T11:39:12;4.88;;;1.25;;
19543;SDS011;9917;51.256;7.152;2023-04-25T11:41:38;5.20;;;2.00;;
19543;SDS011;9917;51.256;7.152;2023-04-25T11:44:05;8.50;;;1.67;;
19543;SDS011;9917;51.256;7.152;2023-04-25T11:46:33;4.53;;;1.38;;
19543;SDS011;9917;51.256;7.152;2023-04-25T11:48:59;4.45;;;1.15;;
19543;SDS011;9917;51.256;7.152;2023-04-25T11:51:24;7.18;;;1.17;;
19543;SDS011;9917;51.256;7.152;2023-04-25T11:53:50;5.22;;;1.20;;
19543;SDS011;9917;51.256;7.152;2023-04-25T11:56:16;5.75;;;1.10;;
19543;SDS011;9917;51.256;7.152;2023-04-25T11:58:54;4.05;;;1.20;;
19543;SDS011;9917;51.256;7.152;2023-04-25T12:01:26;6.55;;;1.33;;
19543;SDS011;9917;51.256;7.152;2023-04-25T12:03:53;3.22;;;1.10;;
19543;SDS011;9917;51.256;7.152;2023-04-25T12:06:19;5.32;;;1.50;;
19543;SDS011;9917;51.256;7.152;2023-04-25T12:08:58;2.13;;;0.90;;
19543;SDS011;9917;51.256;7.152;2023-04-25T12:11:25;3.58;;;1.05;;
19543;SDS011;9917;51.256;7.152;2023-04-25T12:13:51;6.40;;;1.30;;
19543;SDS011;9917;51.256;7.152;2023-04-25T12:16:17;3.08;;;1.20;;
19543;SDS011;9917;51.256;7.152;2023-04-25T12:18:44;6.63;;;2.65;;
19543;SDS011;9917;51.256;7.152;2023-04-25T12:21:12;6.00;;;1.80;;
19543;SDS011;9917;51.256;7.152;2023-04-25T12:23:38;8.43;;;1.98;;
19543;SDS011;9917;51.256;7.152;2023-04-25T12:26:04;3.45;;;1.42;;
19543;SDS011;9917;51.256;7.152;2023-04-25T12:28:31;5.25;;;1.75;;
19543;SDS011;9917;51.256;7.152;2023-04-25T12:30:58;4.88;;;1.50;;
19543;SDS011;9917;51.256;7.152;2023-04-25T12:33:25;4.38;;;1.20;;
19543;SDS011;9917;51.256;7.152;2023-04-25T12:35:54;2.83;;;1.02;;
19543;SDS011;9917;51.256;7.152;2023-04-25T12:38:20;4.70;;;1.55;;
19543;SDS011;9917;51.256;7.152;2023-04-25T12:40:47;5.85;;;1.02;;
19543;SDS011;9917;51.256;7.152;2023-04-25T12:43:12;8.57;;;2.75;;
19543;SDS011;9917;51.256;7.152;2023-04-25T12:45:38;14.27;;;7.00;;
19543;SDS011;9917;51.256;7.152;2023-04-25T12:48:29;10.38;;;4.05;;
19543;SDS011;9917;51.256;7.152;2023-04-25T12:50:56;6.53;;;2.80;;
19543;SDS011;9917;51.256;7.152;2023-04-25T12:53:22;8.07;;;2.53;;
19543;SDS011;9917;51.256;7.152;2023-04-25T12:55:48;7.70;;;1.80;;
19543;SDS011;9917;51.256;7.152;2023-04-25T12:58:19;4.38;;;1.73;;
19543;SDS011;9917;51.256;7.152;2023-04-25T13:00:46;9.82;;;2.28;;
19543;SDS011;9917;51.256;7.152;2023-04-25T13:03:18;6.18;;;1.80;;
19543;SDS011;9917;51.256;7.152;2023-04-25T13:05:47;5.90;;;1.70;;
19543;SDS011;9917;51.256;7.152;2023-04-25T13:08:14;6.07;;;1.73;;
19543;SDS011;9917;51.256;7.152;2023-04-25T13:10:40;5.90;;;2.63;;
19543;SDS011;9917;51.256;7.152;2023-04-25T13:13:06;11.43;;;5.40;;
19543;SDS011;9917;51.256;7.152;2023-04-25T13:15:34;5.25;;;2.35;;
19543;SDS011;9917;51.256;7.152;2023-04-25T13:17:59;6.75;;;2.28;;
19543;SDS011;9917;51.256;7.152;2023-04-25T13:20:25;5.72;;;2.10;;
19543;SDS011;9917;51.256;7.152;2023-04-25T13:22:51;5.13;;;1.65;;
19543;SDS011;9917;51.256;7.152;2023-04-25T13:25:24;3.60;;;1.38;;
19543;SDS011;9917;51.256;7.152;2023-04-25T13:27:50;5.75;;;1.45;;
19543;SDS011;9917;51.256;7.152;2023-04-25T13:30:17;3.22;;;1.17;;
19543;SDS011;9917;51.256;7.152;2023-04-25T13:32:43;7.07;;;0.95;;
19543;SDS011;9917;51.256;7.152;2023-04-25T13:35:09;3.92;;;0.88;;
19543;SDS011;9917;51.256;7.152;2023-04-25T13:37:37;1.65;;;0.75;;
19543;SDS011;9917;51.256;7.152;2023-04-25T13:40:04;3.50;;;1.30;;
19543;SDS011;9917;51.256;7.152;2023-04-25T13:42:33;3.30;;;1.35;;
19543;SDS011;9917;51.256;7.152;2023-04-25T13:45:00;4.68;;;0.85;;
19543;SDS011;9917;51.256;7.152;2023-04-25T13:47:26;4.05;;;1.65;;
19543;SDS011;9917;51.256;7.152;2023-04-25T13:49:52;4.22;;;1.50;;
19543;SDS011;9917;51.256;7.152;2023-04-25T13:52:18;4.05;;;1.85;;
19543;SDS011;9917;51.256;7.152;2023-04-25T13:54:44;4.03;;;1.40;;
19543;SDS011;9917;51.256;7.152;2023-04-25T13:57:10;10.07;;;3.00;;
19543;SDS011;9917;51.256;7.152;2023-04-25T13:59:39;6.28;;;2.22;;
19543;SDS011;9917;51.256;7.152;2023-04-25T14:02:05;4.95;;;1.63;;
19543;SDS011;9917;51.256;7.152;2023-04-25T14:04:31;3.85;;;1.23;;
19543;SDS011;9917;51.256;7.152;2023-04-25T14:06:57;3.22;;;1.50;;
19543;SDS011;9917;51.256;7.152;2023-04-25T14:09:23;2.47;;;1.00;;
19543;SDS011;9917;51.256;7.152;2023-04-25T14:11:49;2.80;;;1.10;;
19543;SDS011;9917;51.256;7.152;2023-04-25T14:14:15;3.20;;;1.10;;
19543;SDS011;9917;51.256;7.152;2023-04-25T14:16:45;4.13;;;1.30;;
19543;SDS011;9917;51.256;7.152;2023-04-25T14:19:11;2.28;;;1.08;;
19543;SDS011;9917;51.256;7.152;2023-04-25T14:21:37;3.40;;;1.48;;
19543;SDS011;9917;51.256;7.152;2023-04-25T14:24:03;2.47;;;1.17;;
19543;SDS011;9917;51.256;7.152;2023-04-25T14:26:28;5.20;;;1.20;;
19543;SDS011;9917;51.256;7.152;2023-04-25T14:28:54;2.78;;;0.90;;
19543;SDS011;9917;51.256;7.152;2023-04-25T14:31:20;2.17;;;0.95;;
19543;SDS011;9917;51.256;7.152;2023-04-25T14:33:48;3.95;;;1.40;;
19543;SDS011;9917;51.256;7.152;2023-04-25T14:36:13;3.00;;;1.00;;
19543;SDS011;9917;51.256;7.152;2023-04-25T14:38:40;4.35;;;1.48;;
19543;SDS011;9917;51.256;7.152;2023-04-25T14:41:08;2.40;;;0.93;;
19543;SDS011;9917;51.256;7.152;2023-04-25T14:43:34;4.28;;;1.40;;
19543;SDS011;9917;51.256;7.152;2023-04-25T14:46:01;1.80;;;1.05;;
19543;SDS011;9917;51.256;7.152;2023-04-25T14:48:28;2.58;;;1.00;;
19543;SDS011;9917;51.256;7.152;2023-04-25T14:50:55;4.25;;;1.27;;
19543;SDS011;9917;51.256;7.152;2023-04-25T14:53:21;3.80;;;1.33;;
19543;SDS011;9917;51.256;7.152;2023-04-25T14:55:46;4.93;;;1.15;;